createdAt,value
2018-04-11T00:00:37.554Z,100336.10
2018-04-11T00:01:41.922Z,100344.08
2018-04-11T00:02:47.271Z,100347.36
2018-04-11T00:04:00.384Z,100354.78
2018-04-11T00:05:06.125Z,100358.95
2018-04-11T00:06:10.913Z,100369.92
2018-04-11T00:07:15.165Z,100366.21
2018-04-11T00:08:21.323Z,100357.11
2018-04-11T00:09:33.391Z,100356.81
2018-04-11T00:10:39.296Z,100353.78
2018-04-11T00:11:43.516Z,100349.37
2018-04-11T00:12:47.725Z,100349.05
2018-04-11T00:13:59.019Z,100350.42
2018-04-11T00:15:05.172Z,100354.22
2018-04-11T00:16:11.403Z,100349.08
2018-04-11T00:17:15.631Z,100353.47
2018-04-11T00:18:19.855Z,100354.98
2018-04-11T00:19:31.416Z,100360.02
2018-04-11T00:20:38.129Z,100355.27
2018-04-11T00:21:42.412Z,100352.01
2018-04-11T00:22:46.642Z,100346.69
2018-04-11T00:23:55.836Z,100342.06
2018-04-11T00:25:05.242Z,100348.33
2018-04-11T00:26:11.173Z,100349.13
2018-04-11T00:27:15.456Z,100352.26
2018-04-11T00:28:19.666Z,100342.09
2018-04-11T00:29:30.875Z,100346.95
2018-04-11T00:30:36.161Z,100353.47
2018-04-11T00:31:41.791Z,100347.49
2018-04-11T00:32:46.031Z,100340.19
2018-04-11T00:33:50.314Z,100345.73
2018-04-11T00:35:01.108Z,100353.70
2018-04-11T00:36:08.487Z,100347.88
2018-04-11T00:37:12.800Z,100347.52
2018-04-11T00:38:17.423Z,100347.07
2018-04-11T00:39:27.262Z,100349.66
2018-04-11T00:40:34.235Z,100340.88
2018-04-11T00:41:42.261Z,100339.11
2018-04-11T00:42:46.480Z,100352.06
2018-04-11T00:43:52.991Z,100348.23
2018-04-11T00:45:01.992Z,100346.17
2018-04-11T00:46:10.293Z,100345.13
2018-04-11T00:47:15.294Z,100345.52
2018-04-11T00:48:19.494Z,100346.16
2018-04-11T00:49:30.691Z,100348.59
2018-04-11T00:50:37.735Z,100352.23
2018-04-11T00:51:42.011Z,100353.48
2018-04-11T00:53:06.353Z,100359.03
2018-04-11T00:54:11.503Z,100357.77
2018-04-11T00:55:15.717Z,100363.70
2018-04-11T00:56:20.004Z,100368.91
2018-04-11T00:57:30.747Z,100366.95
2018-04-11T00:58:37.882Z,100361.06
2018-04-11T00:59:42.871Z,100357.86
2018-04-11T01:00:47.074Z,100357.98
2018-04-11T01:01:53.926Z,100360.44
2018-04-11T01:03:02.422Z,100361.28
2018-04-11T01:04:08.306Z,100362.37
2018-04-11T01:05:12.559Z,100353.34
2018-04-11T01:06:16.760Z,100365.87
2018-04-11T01:07:26.321Z,100354.00
2018-04-11T01:08:34.300Z,100362.09
2018-04-11T01:09:39.865Z,100367.16
2018-04-11T01:10:44.837Z,100365.07
2018-04-11T01:11:49.076Z,100363.98
2018-04-11T01:13:00.749Z,100366.98
2018-04-11T01:14:06.692Z,100368.79
2018-04-11T01:15:11.120Z,100371.63
2018-04-11T01:16:15.329Z,100370.30
2018-04-11T01:17:19.572Z,100376.73
2018-04-11T01:18:29.440Z,100380.71
2018-04-11T01:19:34.785Z,100380.87
2018-04-11T01:20:39.988Z,100372.69
2018-04-11T01:21:44.980Z,100374.42
2018-04-11T01:22:49.223Z,100373.14
2018-04-11T01:24:02.051Z,100379.88
2018-04-11T01:25:07.694Z,100377.14
2018-04-11T01:26:13.072Z,100380.87
2018-04-11T01:27:17.303Z,100381.01
2018-04-11T01:28:24.920Z,100378.21
2018-04-11T01:29:31.784Z,100382.31
2018-04-11T01:30:38.070Z,100380.25
2018-04-11T01:31:42.367Z,100376.47
2018-04-11T01:32:46.583Z,100384.72
2018-04-11T01:33:53.422Z,100385.17
2018-04-11T01:35:01.410Z,100383.44
2018-04-11T01:36:07.914Z,100392.02
2018-04-11T01:37:12.180Z,100386.48
2018-04-11T01:38:16.376Z,100386.34
2018-04-11T01:39:24.684Z,100390.09
2018-04-11T01:40:32.472Z,100386.63
2018-04-11T01:41:39.079Z,100386.14
2018-04-11T01:42:43.346Z,100380.70
2018-04-11T01:43:48.331Z,100380.70
2018-04-11T01:45:00.454Z,100380.73
2018-04-11T01:46:08.573Z,100380.16
2018-04-11T01:47:12.841Z,100379.37
2018-04-11T01:48:17.098Z,100376.31
2018-04-11T01:49:28.849Z,100379.09
2018-04-11T01:50:38.261Z,100375.92
2018-04-11T01:51:42.498Z,100377.66
2018-04-11T01:52:46.696Z,100383.75
2018-04-11T01:53:57.928Z,100381.11
2018-04-11T01:55:07.281Z,100384.88
2018-04-11T01:56:13.103Z,100385.66
2018-04-11T01:57:17.313Z,100386.61
2018-04-11T01:58:36.284Z,100389.34
2018-04-11T01:59:41.447Z,100396.30
2018-04-11T02:00:45.670Z,100390.80
2018-04-11T02:01:51.819Z,100386.66
2018-04-11T02:03:06.312Z,100384.09
2018-04-11T02:04:10.752Z,100382.95
2018-04-11T02:05:14.971Z,100385.11
2018-04-11T02:06:19.170Z,100385.13
2018-04-11T02:07:29.996Z,100387.30
2018-04-11T02:08:36.660Z,100383.63
2018-04-11T02:09:41.006Z,100381.52
2018-04-11T02:10:45.221Z,100386.23
2018-04-11T02:11:50.282Z,100393.19
2018-04-11T02:13:02.492Z,100392.55
2018-04-11T02:14:08.999Z,100395.98
2018-04-11T02:15:13.990Z,100386.47
2018-04-11T02:16:30.070Z,100381.86
2018-04-11T02:17:40.197Z,100384.00
2018-04-11T02:18:44.427Z,100383.31
2018-04-11T02:19:48.698Z,100379.95
2018-04-11T02:21:01.412Z,100377.59
2018-04-11T02:22:07.475Z,100374.16
2018-04-11T02:23:12.437Z,100375.59
2018-04-11T02:24:16.633Z,100377.80
2018-04-11T02:25:25.097Z,100379.33
2018-04-11T02:26:32.783Z,100382.90
2018-04-11T02:27:39.244Z,100382.50
2018-04-11T02:28:44.458Z,100383.94
2018-04-11T02:29:48.668Z,100387.55
2018-04-11T02:30:59.724Z,100389.36
2018-04-11T02:32:06.311Z,100390.31
2018-04-11T02:33:11.787Z,100397.31
2018-04-11T02:34:16.837Z,100392.19
2018-04-11T02:35:27.834Z,100396.73
2018-04-11T02:36:35.815Z,100404.33
2018-04-11T02:37:40.232Z,100401.47
2018-04-11T02:38:44.438Z,100401.88
2018-04-11T02:39:48.978Z,100401.53
2018-04-11T02:41:04.616Z,100398.62
2018-04-11T02:42:10.046Z,100395.66
2018-04-11T02:43:15.016Z,100395.70
2018-04-11T02:44:19.235Z,100392.19
2018-04-11T02:45:29.733Z,100391.05
2018-04-11T02:46:36.507Z,100392.86
2018-04-11T02:47:41.107Z,100394.20
2018-04-11T02:48:45.323Z,100396.76
2018-04-11T02:49:49.532Z,100399.37
2018-04-11T02:51:03.669Z,100401.52
2018-04-11T02:52:09.885Z,100402.66
2018-04-11T02:53:14.137Z,100400.19
2018-04-11T02:54:18.372Z,100397.72
2018-04-11T02:55:27.350Z,100401.94
2018-04-11T02:56:35.695Z,100403.33
2018-04-11T02:57:41.113Z,100400.75
2018-04-11T02:58:45.313Z,100405.59
2018-04-11T02:59:49.512Z,100407.00
2018-04-11T03:00:58.811Z,100405.70
2018-04-11T03:02:06.293Z,100412.16
2018-04-11T03:03:10.750Z,100413.56
2018-04-11T03:04:14.965Z,100410.11
2018-04-11T03:05:19.163Z,100407.41
2018-04-11T03:06:28.569Z,100415.09
2018-04-11T03:07:35.016Z,100421.67
2018-04-11T03:08:39.561Z,100416.97
2018-04-11T03:09:44.537Z,100415.74
2018-04-11T03:10:48.735Z,100412.79
2018-04-11T03:11:57.566Z,100417.86
2018-04-11T03:13:05.135Z,100411.80
2018-04-11T03:14:15.686Z,100415.28
2018-04-11T03:15:24.297Z,100413.22
2018-04-11T03:16:30.038Z,100417.03
2018-04-11T03:17:35.472Z,100409.02
2018-04-11T03:18:39.742Z,100416.72
2018-04-11T03:19:43.966Z,100417.23
2018-04-11T03:20:48.179Z,100416.34
2018-04-11T03:21:58.231Z,100417.31
2018-04-11T03:23:04.078Z,100418.73
2018-04-11T03:24:08.995Z,100424.14
2018-04-11T03:25:13.200Z,100427.55
2018-04-11T03:26:17.436Z,100422.16
2018-04-11T03:27:25.470Z,100414.53
2018-04-11T03:28:31.243Z,100422.20
2018-04-11T03:29:35.856Z,100424.39
2018-04-11T03:30:40.889Z,100424.70
2018-04-11T03:31:45.098Z,100422.55
2018-04-11T03:32:49.303Z,100423.40
2018-04-11T03:33:59.047Z,100421.84
2018-04-11T03:35:06.836Z,100427.38
2018-04-11T03:36:11.081Z,100424.83
2018-04-11T03:37:15.273Z,100420.63
2018-04-11T03:38:19.482Z,100415.83
2018-04-11T03:39:28.428Z,100414.25
2018-04-11T03:40:35.644Z,100415.97
2018-04-11T03:41:39.926Z,100414.61
2018-04-11T03:42:44.133Z,100415.84
2018-04-11T03:43:48.348Z,100419.31
2018-04-11T03:45:00.124Z,100412.50
2018-04-11T03:46:09.495Z,100411.62
2018-04-11T03:47:14.469Z,100415.45
2018-04-11T03:48:18.683Z,100415.11
2018-04-11T03:49:28.027Z,100417.27
2018-04-11T03:50:35.462Z,100413.50
2018-04-11T03:51:40.160Z,100412.31
2018-04-11T03:52:44.405Z,100409.27
2018-04-11T03:53:49.409Z,100412.30
2018-04-11T03:54:58.758Z,100412.20
2018-04-11T03:56:06.391Z,100408.51
2018-04-11T03:57:10.867Z,100417.86
2018-04-11T03:58:15.822Z,100414.66
2018-04-11T03:59:20.082Z,100417.69
2018-04-11T04:00:30.228Z,100417.20
2018-04-11T04:01:36.947Z,100413.90
2018-04-11T04:02:41.234Z,100411.66
2018-04-11T04:03:45.434Z,100420.24
2018-04-11T04:04:49.697Z,100416.84
2018-04-11T04:05:57.376Z,100414.71
2018-04-11T04:07:05.620Z,100421.59
2018-04-11T04:08:10.019Z,100420.83
2018-04-11T04:09:14.217Z,100424.36
2018-04-11T04:10:18.438Z,100422.84
2018-04-11T04:11:25.078Z,100419.53
2018-04-11T04:12:31.292Z,100426.33
2018-04-11T04:13:53.907Z,100426.73
2018-04-11T04:15:16.894Z,100428.43
2018-04-11T04:16:38.902Z,100423.37
2018-04-11T04:18:01.206Z,100427.30
2018-04-11T04:19:24.106Z,100429.54
2018-04-11T04:20:37.506Z,100428.73
2018-04-11T04:21:42.127Z,100425.85
2018-04-11T04:22:46.329Z,100436.44
2018-04-11T04:23:52.895Z,100434.22
2018-04-11T04:25:00.928Z,100432.08
2018-04-11T04:26:06.316Z,100433.45
2018-04-11T04:27:10.720Z,100435.61
2018-04-11T04:28:15.685Z,100433.97
2018-04-11T04:29:19.973Z,100437.75
2018-04-11T04:30:30.227Z,100440.44
2018-04-11T04:31:36.205Z,100438.58
2018-04-11T04:32:40.460Z,100434.83
2018-04-11T04:33:44.670Z,100437.45
2018-04-11T04:34:48.883Z,100433.55
2018-04-11T04:35:58.291Z,100439.48
2018-04-11T04:37:03.098Z,100445.05
2018-04-11T04:38:07.439Z,100455.17
2018-04-11T04:39:11.693Z,100454.52
2018-04-11T04:40:16.663Z,100462.52
2018-04-11T04:41:21.896Z,100463.28
2018-04-11T04:42:29.581Z,100457.37
2018-04-11T04:43:38.044Z,100451.34
2018-04-11T04:44:42.299Z,100456.97
2018-04-11T04:45:46.485Z,100454.41
2018-04-11T04:46:51.428Z,100445.16
2018-04-11T04:48:23.068Z,100451.16
2018-04-11T04:49:31.506Z,100463.48
2018-04-11T04:50:37.886Z,100462.61
2018-04-11T04:51:42.146Z,100457.16
2018-04-11T04:52:46.349Z,100467.86
2018-04-11T04:53:53.035Z,100462.25
2018-04-11T04:55:07.421Z,100469.44
2018-04-11T04:56:11.636Z,100466.10
2018-04-11T04:57:15.825Z,100469.55
2018-04-11T04:58:22.009Z,100459.31
2018-04-11T04:59:29.053Z,100466.13
2018-04-11T05:00:34.120Z,100458.88
2018-04-11T05:01:39.252Z,100458.04
2018-04-11T05:02:43.460Z,100453.83
2018-04-11T05:03:47.667Z,100466.66
2018-04-11T05:04:54.774Z,100463.30
2018-04-11T05:06:00.390Z,100458.66
2018-04-11T05:07:06.034Z,100464.09
2018-04-11T05:08:10.343Z,100463.25
2018-04-11T05:09:14.808Z,100469.66
2018-04-11T05:10:19.044Z,100472.64
2018-04-11T05:11:26.133Z,100471.70
2018-04-11T05:12:32.444Z,100482.41
2018-04-11T05:13:38.352Z,100470.84
2018-04-11T05:14:42.562Z,100460.96
2018-04-11T05:15:47.539Z,100468.22
2018-04-11T05:16:54.179Z,100475.02
2018-04-11T05:17:59.814Z,100473.20
2018-04-11T05:19:04.545Z,100475.62
2018-04-11T05:20:08.798Z,100465.98
2018-04-11T05:21:13.024Z,100469.54
2018-04-11T05:22:17.229Z,100477.53
2018-04-11T05:23:22.629Z,100476.66
2018-04-11T05:24:29.389Z,100470.20
2018-04-11T05:25:35.747Z,100479.64
2018-04-11T05:26:40.018Z,100477.08
2018-04-11T05:27:44.210Z,100484.28
2018-04-11T05:28:48.419Z,100482.33
2018-04-11T05:29:57.583Z,100481.88
2018-04-11T05:31:02.715Z,100486.08
2018-04-11T05:32:08.312Z,100483.94
2018-04-11T05:33:12.559Z,100493.71
2018-04-11T05:34:17.533Z,100507.91
2018-04-11T05:35:22.148Z,100516.38
2018-04-11T05:36:32.336Z,100506.52
2018-04-11T05:37:39.619Z,100503.56
2018-04-11T05:38:43.826Z,100505.24
2018-04-11T05:39:48.036Z,100490.80
2018-04-11T05:40:58.787Z,100496.74
2018-04-11T05:42:05.960Z,100498.50
2018-04-11T05:43:22.455Z,100501.52
2018-04-11T05:44:32.289Z,100507.77
2018-04-11T05:45:38.806Z,100506.91
2018-04-11T05:46:43.023Z,100507.40
2018-04-11T05:47:47.230Z,100492.84
2018-04-11T05:48:54.437Z,100490.66
2018-04-11T05:50:00.641Z,100499.48
2018-04-11T05:51:09.281Z,100494.31
2018-04-11T05:52:13.581Z,100495.98
2018-04-11T05:53:17.793Z,100505.41
2018-04-11T05:54:29.278Z,100500.30
2018-04-11T05:55:37.770Z,100499.13
2018-04-11T05:56:42.052Z,100507.17
2018-04-11T05:57:46.241Z,100512.30
2018-04-11T05:58:58.704Z,100524.61
2018-04-11T06:00:07.513Z,100517.94
2018-04-11T06:01:12.464Z,100503.70
2018-04-11T06:02:16.676Z,100509.73
2018-04-11T06:03:21.763Z,100511.36
2018-04-11T06:04:32.580Z,100510.77
2018-04-11T06:05:39.662Z,100522.58
2018-04-11T06:06:44.130Z,100520.85
2018-04-11T06:07:48.336Z,100522.55
2018-04-11T06:09:00.904Z,100529.37
2018-04-11T06:10:07.135Z,100541.61
2018-04-11T06:11:11.404Z,100553.43
2018-04-11T06:12:15.619Z,100556.23
2018-04-11T06:13:19.815Z,100543.30
2018-04-11T06:14:36.505Z,100533.73
2018-04-11T06:15:41.594Z,100528.05
2018-04-11T06:16:45.794Z,100519.47
2018-04-11T06:17:50.051Z,100526.69
2018-04-11T06:19:03.604Z,100521.19
2018-04-11T06:20:09.375Z,100518.63
2018-04-11T06:21:13.585Z,100522.89
2018-04-11T06:22:17.790Z,100529.11
2018-04-11T06:23:27.829Z,100540.12
2018-04-11T06:24:35.738Z,100534.96
2018-04-11T06:25:40.330Z,100530.62
2018-04-11T06:26:44.536Z,100542.14
2018-04-11T06:27:48.740Z,100537.58
2018-04-11T06:28:58.923Z,100532.00
2018-04-11T06:30:05.309Z,100533.69
2018-04-11T06:31:09.676Z,100536.09
2018-04-11T06:32:14.668Z,100532.88
2018-04-11T06:33:18.878Z,100529.30
2018-04-11T06:34:28.119Z,100530.61
2018-04-11T06:35:36.043Z,100531.81
2018-04-11T06:36:41.098Z,100540.31
2018-04-11T06:37:45.333Z,100535.75
2018-04-11T06:38:49.542Z,100543.73
2018-04-11T06:40:00.972Z,100547.41
2018-04-11T06:41:08.083Z,100548.59
2018-04-11T06:42:12.353Z,100544.27
2018-04-11T06:43:16.562Z,100546.48
2018-04-11T06:44:24.448Z,100546.00
2018-04-11T06:45:33.103Z,100544.22
2018-04-11T06:46:38.878Z,100542.45
2018-04-11T06:47:43.476Z,100538.20
2018-04-11T06:48:47.751Z,100538.60
2018-04-11T06:49:54.151Z,100537.72
2018-04-11T06:51:02.221Z,100534.22
2018-04-11T06:52:09.202Z,100532.87
2018-04-11T06:53:13.577Z,100529.94
2018-04-11T06:54:17.772Z,100529.98
2018-04-11T06:55:24.008Z,100534.66
2018-04-11T06:56:29.383Z,100536.80
2018-04-11T06:57:35.034Z,100541.87
2018-04-11T06:58:40.420Z,100540.34
2018-04-11T06:59:45.401Z,100545.74
2018-04-11T07:00:49.602Z,100546.50
2018-04-11T07:01:58.657Z,100550.20
2018-04-11T07:03:04.567Z,100550.64
2018-04-11T07:04:08.920Z,100552.20
2018-04-11T07:05:13.182Z,100550.28
2018-04-11T07:06:17.406Z,100545.36
2018-04-11T07:07:24.472Z,100550.70
2018-04-11T07:08:33.276Z,100544.97
2018-04-11T07:09:39.315Z,100545.14
2018-04-11T07:10:44.685Z,100543.92
2018-04-11T07:11:48.898Z,100545.61
2018-04-11T07:13:00.424Z,100552.75
2018-04-11T07:14:06.312Z,100552.32
2018-04-11T07:15:10.553Z,100550.08
2018-04-11T07:16:14.818Z,100554.34
2018-04-11T07:17:19.803Z,100555.06
2018-04-11T07:18:24.947Z,100556.17
2018-04-11T07:19:29.474Z,100559.27
2018-04-11T07:20:34.584Z,100560.70
2018-04-11T07:21:38.841Z,100565.73
2018-04-11T07:22:43.831Z,100568.54
2018-04-11T07:23:48.868Z,100563.39
2018-04-11T07:24:53.178Z,100567.48
2018-04-11T07:25:57.457Z,100564.22
2018-04-11T07:27:02.078Z,100557.36
2018-04-11T07:28:06.288Z,100557.86
2018-04-11T07:29:10.508Z,100560.25
2018-04-11T07:30:14.731Z,100553.81
2018-04-11T07:31:18.938Z,100559.02
2018-04-11T07:32:23.533Z,100562.84
2018-04-11T07:33:28.632Z,100565.98
2018-04-11T07:34:34.195Z,100569.14
2018-04-11T07:35:39.169Z,100565.53
2018-04-11T07:36:43.395Z,100566.03
2018-04-11T07:37:47.604Z,100568.55
2018-04-11T07:38:54.295Z,100568.36
2018-04-11T07:40:04.251Z,100567.81
2018-04-11T07:41:08.945Z,100574.16
2018-04-11T07:42:13.169Z,100576.03
2018-04-11T07:43:18.143Z,100577.77
2018-04-11T07:44:28.297Z,100581.80
2018-04-11T07:45:33.832Z,100587.02
2018-04-11T07:46:39.233Z,100586.34
2018-04-11T07:47:44.222Z,100580.61
2018-04-11T07:48:48.447Z,100582.86
2018-04-11T07:49:56.313Z,100582.23
2018-04-11T07:51:03.462Z,100581.58
2018-04-11T07:52:10.419Z,100578.63
2018-04-11T07:53:15.403Z,100572.83
2018-04-11T07:54:19.617Z,100578.78
2018-04-11T07:55:28.269Z,100574.04
2018-04-11T07:56:35.650Z,100573.38
2018-04-11T07:57:40.043Z,100571.87
2018-04-11T07:58:44.255Z,100576.70
2018-04-11T07:59:48.481Z,100572.51
2018-04-11T08:00:56.621Z,100580.42
2018-04-11T08:02:04.160Z,100574.59
2018-04-11T08:03:10.336Z,100572.27
2018-04-11T08:04:14.520Z,100574.35
2018-04-11T08:05:18.744Z,100572.27
2018-04-11T08:06:28.024Z,100577.07
2018-04-11T08:07:33.269Z,100581.26
2018-04-11T08:08:39.117Z,100579.66
2018-04-11T08:09:43.334Z,100580.58
2018-04-11T08:10:47.541Z,100578.33
2018-04-11T08:11:54.635Z,100587.62
2018-04-11T08:13:00.846Z,100587.89
2018-04-11T08:14:09.192Z,100597.30
2018-04-11T08:15:13.413Z,100593.87
2018-04-11T08:16:17.659Z,100602.45
2018-04-11T08:17:25.163Z,100603.13
2018-04-11T08:18:31.593Z,100606.42
2018-04-11T08:19:37.108Z,100595.99
2018-04-11T08:20:41.397Z,100592.16
2018-04-11T08:21:45.622Z,100597.81
2018-04-11T08:22:49.830Z,100590.50
2018-04-11T08:23:58.459Z,100587.98
2018-04-11T08:25:04.922Z,100598.89
2018-04-11T08:26:09.815Z,100591.81
2018-04-11T08:27:14.897Z,100588.63
2018-04-11T08:28:19.110Z,100585.52
2018-04-11T08:29:26.967Z,100591.95
2018-04-11T08:30:33.271Z,100586.56
2018-04-11T08:31:38.808Z,100584.83
2018-04-11T08:32:43.026Z,100589.24
2018-04-11T08:33:47.356Z,100584.41
2018-04-11T08:34:55.213Z,100590.66
2018-04-11T08:36:04.179Z,100588.44
2018-04-11T08:37:08.433Z,100587.10
2018-04-11T08:38:12.647Z,100595.59
2018-04-11T08:39:16.886Z,100595.00
2018-04-11T08:40:24.130Z,100596.13
2018-04-11T08:41:30.735Z,100598.36
2018-04-11T08:42:37.260Z,100599.13
2018-04-11T08:43:42.262Z,100602.13
2018-04-11T08:44:46.506Z,100607.67
2018-04-11T08:45:52.076Z,100609.74
2018-04-11T08:47:01.595Z,100606.81
2018-04-11T08:48:08.722Z,100601.09
2018-04-11T08:49:12.939Z,100603.58
2018-04-11T08:50:16.499Z,100604.12
2018-04-11T08:51:21.033Z,100601.36
2018-04-11T08:52:31.201Z,100600.83
2018-04-11T08:53:37.572Z,100615.63
2018-04-11T08:54:41.793Z,100612.45
2018-04-11T08:55:46.774Z,100616.72
2018-04-11T08:56:51.378Z,100612.21
2018-04-11T08:58:02.486Z,100614.04
2018-04-11T08:59:08.271Z,100618.11
2018-04-11T09:00:12.861Z,100625.86
2018-04-11T09:01:17.079Z,100623.37
2018-04-11T09:02:23.205Z,100618.67
2018-04-11T09:03:29.235Z,100614.87
2018-04-11T09:04:36.424Z,100610.79
2018-04-11T09:05:40.891Z,100604.96
2018-04-11T09:06:45.865Z,100609.92
2018-04-11T09:07:50.275Z,100609.95
2018-04-11T09:08:58.064Z,100610.69
2018-04-11T09:10:03.245Z,100612.06
2018-04-11T09:11:07.845Z,100614.20
2018-04-11T09:12:12.095Z,100612.83
2018-04-11T09:13:16.315Z,100609.25
2018-04-11T09:14:23.739Z,100607.08
2018-04-11T09:15:30.417Z,100610.23
2018-04-11T09:16:37.096Z,100609.84
2018-04-11T09:17:41.318Z,100610.56
2018-04-11T09:18:45.521Z,100610.07
2018-04-11T09:19:49.787Z,100616.51
2018-04-11T09:20:57.350Z,100622.20
2018-04-11T09:22:02.220Z,100609.00
2018-04-11T09:23:08.011Z,100612.55
2018-04-11T09:24:12.251Z,100617.52
2018-04-11T09:25:16.514Z,100616.98
2018-04-11T09:26:22.347Z,100612.32
2018-04-11T09:27:31.871Z,100614.25
2018-04-11T09:28:38.165Z,100620.61
2018-04-11T09:29:42.592Z,100620.95
2018-04-11T09:30:46.857Z,100618.81
2018-04-11T09:31:53.918Z,100610.13
2018-04-11T09:33:02.554Z,100605.23
2018-04-11T09:34:10.474Z,100613.37
2018-04-11T09:35:14.771Z,100617.78
2018-04-11T09:36:18.998Z,100616.89
2018-04-11T09:37:28.732Z,100612.73
2018-04-11T09:38:37.069Z,100610.55
2018-04-11T09:39:42.388Z,100611.84
2018-04-11T09:40:46.590Z,100615.63
2018-04-11T09:41:53.556Z,100614.09
2018-04-11T09:43:07.697Z,100610.55
2018-04-11T09:44:13.797Z,100606.22
2018-04-11T09:45:17.996Z,100607.48
2018-04-11T09:46:32.594Z,100608.08
2018-04-11T09:47:42.049Z,100602.70
2018-04-11T09:48:46.300Z,100599.92
2018-04-11T09:49:51.457Z,100602.16
2018-04-11T09:51:05.470Z,100597.98
2018-04-11T09:52:11.181Z,100593.84
2018-04-11T09:53:15.388Z,100594.69
2018-04-11T09:54:19.611Z,100596.55
2018-04-11T09:55:31.965Z,100596.44
2018-04-11T09:56:40.203Z,100602.67
2018-04-11T09:57:44.469Z,100593.24
2018-04-11T09:58:48.687Z,100599.00
2018-04-11T10:00:00.457Z,100591.56
2018-04-11T10:01:08.553Z,100596.08
2018-04-11T10:02:18.499Z,100587.12
2018-04-11T10:03:29.436Z,100590.58
2018-04-11T10:04:35.503Z,100587.30
2018-04-11T10:05:40.352Z,100583.67
2018-04-11T10:06:44.629Z,100586.65
2018-04-11T10:07:48.847Z,100580.80
2018-04-11T10:08:56.619Z,100580.35
2018-04-11T10:10:01.648Z,100573.95
2018-04-11T10:11:06.866Z,100572.37
2018-04-11T10:12:11.421Z,100581.01
2018-04-11T10:13:15.641Z,100574.53
2018-04-11T10:14:19.906Z,100579.72
2018-04-11T10:15:31.378Z,100584.28
2018-04-11T10:16:37.480Z,100577.38
2018-04-11T10:17:41.712Z,100577.17
2018-04-11T10:18:45.937Z,100581.71
2018-04-11T10:19:50.753Z,100584.26
2018-04-11T10:21:00.830Z,100584.44
2018-04-11T10:22:08.235Z,100583.71
2018-04-11T10:23:13.038Z,100586.53
2018-04-11T10:24:17.253Z,100587.88
2018-04-11T10:25:28.675Z,100583.76
2018-04-11T10:26:38.623Z,100579.98
2018-04-11T10:27:43.964Z,100582.10
2018-04-11T10:28:48.174Z,100583.08
2018-04-11T10:29:57.067Z,100587.45
2018-04-11T10:31:04.048Z,100582.52
2018-04-11T10:32:10.009Z,100581.50
2018-04-11T10:33:14.224Z,100584.61
2018-04-11T10:34:18.458Z,100581.83
2018-04-11T10:35:26.396Z,100579.64
2018-04-11T10:36:32.537Z,100579.19
2018-04-11T10:37:38.799Z,100584.41
2018-04-11T10:38:44.019Z,100584.11
2018-04-11T10:39:48.247Z,100584.91
2018-04-11T10:41:01.033Z,100589.94
2018-04-11T10:42:06.407Z,100586.01
2018-04-11T10:43:10.754Z,100589.38
2018-04-11T10:44:14.956Z,100578.48
2018-04-11T10:45:19.927Z,100572.13
2018-04-11T10:46:31.282Z,100578.64
2018-04-11T10:47:38.051Z,100582.58
2018-04-11T10:48:43.866Z,100579.15
2018-04-11T10:49:48.837Z,100575.36
2018-04-11T10:50:57.615Z,100578.56
2018-04-11T10:52:02.751Z,100578.08
2018-04-11T10:53:08.774Z,100582.19
2018-04-11T10:54:12.990Z,100578.20
2018-04-11T10:55:17.194Z,100582.09
2018-04-11T10:56:23.968Z,100576.70
2018-04-11T10:57:29.822Z,100569.63
2018-04-11T10:58:35.452Z,100575.84
2018-04-11T10:59:39.757Z,100576.63
2018-04-11T11:00:43.974Z,100576.34
2018-04-11T11:01:48.189Z,100572.81
2018-04-11T11:02:56.491Z,100576.91
2018-04-11T11:04:02.630Z,100574.94
2018-04-11T11:05:08.584Z,100576.51
2018-04-11T11:06:12.792Z,100567.14
2018-04-11T11:07:16.992Z,100561.64
2018-04-11T11:08:23.328Z,100560.48
2018-04-11T11:09:29.886Z,100561.61
2018-04-11T11:10:35.833Z,100563.59
2018-04-11T11:11:40.212Z,100567.03
2018-04-11T11:12:45.339Z,100570.16
2018-04-11T11:13:54.388Z,100562.51
2018-04-11T11:15:01.142Z,100556.91
2018-04-11T11:16:06.377Z,100562.39
2018-04-11T11:17:10.771Z,100563.59
2018-04-11T11:18:14.980Z,100559.34
2018-04-11T11:19:19.209Z,100565.66
2018-04-11T11:20:25.707Z,100568.52
2018-04-11T11:21:31.298Z,100575.59
2018-04-11T11:22:37.635Z,100572.78
2018-04-11T11:23:42.734Z,100567.00
2018-04-11T11:24:46.949Z,100566.89
2018-04-11T11:25:51.834Z,100567.10
2018-04-11T11:27:03.455Z,100563.97
2018-04-11T11:28:08.211Z,100562.38
2018-04-11T11:29:12.454Z,100572.87
2018-04-11T11:30:17.449Z,100564.30
2018-04-11T11:31:27.268Z,100553.64
2018-04-11T11:32:32.406Z,100561.38
2018-04-11T11:33:38.235Z,100554.77
2018-04-11T11:34:42.482Z,100550.02
2018-04-11T11:35:47.448Z,100564.10
2018-04-11T11:36:53.843Z,100567.07
2018-04-11T11:38:00.865Z,100559.97
2018-04-11T11:39:07.555Z,100559.45
2018-04-11T11:40:11.765Z,100570.02
2018-04-11T11:41:15.978Z,100565.88
2018-04-11T11:42:20.219Z,100565.53
2018-04-11T11:43:28.679Z,100571.02
2018-04-11T11:44:35.163Z,100564.11
2018-04-11T11:45:41.558Z,100566.72
2018-04-11T11:46:46.569Z,100551.99
2018-04-11T11:47:53.644Z,100557.57
2018-04-11T11:49:02.862Z,100552.55
2018-04-11T11:50:08.756Z,100556.99
2018-04-11T11:51:13.062Z,100552.52
2018-04-11T11:52:17.306Z,100555.66
2018-04-11T11:53:28.862Z,100560.58
2018-04-11T11:54:34.897Z,100559.23
2018-04-11T11:55:40.492Z,100560.20
2018-04-11T11:56:44.715Z,100561.50
2018-04-11T11:57:48.993Z,100555.31
2018-04-11T11:59:00.637Z,100555.56
2018-04-11T12:00:06.985Z,100557.08
2018-04-11T12:01:11.273Z,100553.11
2018-04-11T12:02:15.950Z,100558.69
2018-04-11T12:03:20.311Z,100565.20
2018-04-11T12:04:30.893Z,100565.78
2018-04-11T12:05:37.366Z,100561.52
2018-04-11T12:06:41.631Z,100558.87
2018-04-11T12:07:45.870Z,100556.23
2018-04-11T12:08:50.245Z,100557.70
2018-04-11T12:09:59.907Z,100556.75
2018-04-11T12:11:05.137Z,100553.45
2018-04-11T12:12:10.327Z,100555.19
2018-04-11T12:13:14.554Z,100554.84
2018-04-11T12:14:19.219Z,100552.81
2018-04-11T12:15:27.162Z,100528.08
2018-04-11T12:16:33.418Z,100526.86
2018-04-11T12:17:37.922Z,100528.23
2018-04-11T12:18:42.631Z,100528.45
2018-04-11T12:19:46.856Z,100526.23
2018-04-11T12:20:52.883Z,100523.80
2018-04-11T12:22:00.294Z,100527.98
2018-04-11T12:23:05.493Z,100522.48
2018-04-11T12:24:09.852Z,100526.67
2018-04-11T12:25:14.062Z,100521.99
2018-04-11T12:26:19.085Z,100517.08
2018-04-11T12:27:27.508Z,100520.58
2018-04-11T12:28:33.686Z,100512.84
2018-04-11T12:29:38.154Z,100507.23
2018-04-11T12:30:42.388Z,100521.38
2018-04-11T12:31:46.597Z,100519.23
2018-04-11T12:32:51.224Z,100511.52
2018-04-11T12:33:58.680Z,100515.33
2018-04-11T12:35:05.631Z,100510.95
2018-04-11T12:36:10.420Z,100512.94
2018-04-11T12:37:15.818Z,100510.84